Scroll down
FLIGHT INFORMATION
United Airlines

UAL595

At Arrival Gate

KAUS
 KDEN
DATE: 2021-02-11
GATE: G1
GATE DEPARTURE: 14:47
TAKEOFF: 15:08
DATE: 2021-02-11
GATE: B56A
LANDING: 17:33
GATE ARRIVAL: 17:37
FLIGHT DATA
Crew: 
Speed: 
459 kts
Altitude: 
38,012 ft
Stage Length: 
674.3 nm
Block Time: 
2.7 hrs
Flight Time: 
2.4 hrs
Fuel Used: 
14,518 lb
Cleared Route: KAUS WLMRT ELOEL KLNGR SPS LBL HALEN KOORN IDOLL NIIXX HAGGR BSTON BOSSS RW35L
TRACK DATA
50,000 ft 1,000 kts
AIRCRAFT INFO AND CUMULATIVE STATS
Aircraft Type: 
B739ERSSW
Registration: 
SELCAL: 
CEDJ
MSN/LN: 
60122 / 5168
Operator: 
Total Flights: 
16
Total Block Time: 
42.2 hrs
Total Flight Time: 
37.2 hrs
Total Fuel Time: 
224,193 lb
DATALINK LOG | Newest first | Current as of: 2021-06-22 14:38:02
LABEL SEQUENCE CONTENT Dn/Up
5Z565111 FEB 21 17:42:16z / FLT DECK GOOD / ACF POS GOOD / GRND SERVICES GOOD / MAINT GOOD▼ Dn
QD514617:37 4.9▼ Dn
QC474217:33▼ Dn
UM2123037KDEN ATIS - DEN ARR INFO T 1453Z. 00000KT 1 1/4SM BR OVC002 M11/M13 A2993 (TWO NINER NINER THREE) RMK AO2 SFC VIS 2 SNE47. HAZUS WX INFO FOR CO, KS, NE, WY AVBL FM FLT SVC. PIREP 15 SOUTH DEN, 1320Z E50P RPRTD MDT, TB, BTN 12THSD AND 17 THSD. SIMUL APPROACHES IN USE, EXPC ILS APPROACH, RWY 34R, RWY 35L, RWY 35R, MULT RNAV Z APPROACHES IN USE. NOTAMS... TWY L CLSD BTN TWY Z AND TWY EE .. EE DEE ICE PAD CLOSED BETWEEN R8 AND R9. BIRD ACTIVITY VICINITY ARPT. USE CAUTION FOR UAS ACTIVITY 5.5 NM NORTH WEST OF DEN AT OR BELOW 1000 AGL. ...ADVS YOU HAVE INFO T.▲ Up
DM793027 ATIS KDEN A▼ Dn
2U1601KDEN 111453Z 00000KT 1 1/4SM R35L/5000VP6000FT BR OVC002 M11/M13 A2993 RMK AO2 SFC VIS 2 SNE47 SLP196 P0000 60000 T11111128 5000▲ Up
2S3025KDEN▼ Dn
UM2122536KDEN ATIS - DEN ARR INFO S 1353Z. 00000KT 1/2SM SN FZFG OVC003 M11/M12 A2992 (TWO NINER NINER TWO) RMK SFC VIS 1. HAZUS WX INFO FOR CO, KS, NE, WY AVBL FM FLT SVC. PIREP 15 SOUTH DEN, 1320Z E50P RPRTD MDT, TB, BTN 12THSD AND 17 THSD. SIMUL APPROACHES IN USE, EXPC ILS APPROACH, RWY 34R, RWY 35L, RWY 35R, MULT RNAV Z APPROACHES IN USE. NOTAMS... TWY L CLSD BTN TWY Z AND TWY EE .. EE DEE ICE PAD CLOSED BETWEEN R8 AND R9. BIRD ACTIVITY VICINITY ARPT. USE CAUTION FOR UAS ACTIVITY 5.5 NM NORTH WEST OF DEN AT OR BELOW 1000 AGL. ...ADVS YOU HAVE INFO S.▲ Up
DM792525 ATIS KDEN A▼ Dn
5U1138KDEN 111819Z 06007KT 4SM BR BKN008 M11/M12 A2992▲ Up
2U1132KDEN 111353Z 00000KT 1/2SM R35L/P6000FT SN FZFG OVC003 M11/M12 A2992 RMK AO2 SFC VIS 1 SLP190 P0000 T11111122▲ Up
5S2523KDEN▼ Dn
2S2522KDEN▼ Dn
GA2128GATE B56A▲ Up
GR2118KDEN 16:54 MAAS 00 YP/UM 00/00 WCHR/S/C 01/00/00 HI-VAL NO DIPL/VIP NO▼ Dn
UM2121219KDEN ATIS - DEN ARR INFO S 1353Z. 00000KT 1/2SM SN FZFG OVC003 M11/M12 A2992 (TWO NINER NINER TWO) RMK SFC VIS 1. HAZUS WX INFO FOR CO, KS, NE, WY AVBL FM FLT SVC. PIREP 15 SOUTH DEN, 1320Z E50P RPRTD MDT, TB, BTN 12THSD AND 17 THSD. SIMUL APPROACHES IN USE, EXPC ILS APPROACH, RWY 34R, RWY 35L, RWY 35R, MULT RNAV Z APPROACHES IN USE. NOTAMS... TWY L CLSD BTN TWY Z AND TWY EE .. EE DEE ICE PAD CLOSED BETWEEN R8 AND R9. BIRD ACTIVITY VICINITY ARPT. USE CAUTION FOR UAS ACTIVITY 5.5 NM NORTH WEST OF DEN AT OR BELOW 1000 AGL. ...ADVS YOU HAVE INFO S.▲ Up
DM791209 ATIS KDEN A▼ Dn
5U4400KDEN 111749Z 06007KT 4SM BR BKN008 M11/M12 A2992▲ Up
5S5856KDEN▼ Dn
2U4454KDEN 111253Z VRB04KT 1/2SM R35L/3000V4000FT SN FZFG VV002 M11/M12 A2992 RMK AO2 SLP186 P0000 T11111122▲ Up
2S5756KDEN▼ Dn
5R5755SPS 15:40z FL380 LBL 16:10z HALEN M0.78 13.7 -48 246/107 RW35L 16:54z▼ Dn
QB222115:08▼ Dn
QA020114:47 19.5▼ Dn
2U2856KAUS 111153Z 01014KT 6SM BR OVC006 02/00 A3008 RMK AO2 RAE08 SLP193 P0000 60000 70007 T00170000 10033 20011 55000▲ Up
2S4244KAUS▼ Dn
A33950CLEARED TO KDEN VIA ELOEL2 KLNGR SPS LBL HALEN NIIXX2. SQUAWK 1710.▲ Up
UM2123245KAUS ATIS - AUS ATIS INFO C 1153Z. 01014KT 6SM BR OVC006 02/00 A3008 (THREE ZERO ZERO EIGHT). ARRIVALS EXPECT ILS APCH RWY 35R. NOTAMS... RWY 17R 35L CLSD. TWY C CLSD BTN TWY S AND TWY Z. ...ADVS YOU HAVE INFO C.▲ Up
DM793234 ATIS KAUS D▼ Dn
A72126CLEARANCE AVAIL WITHIN 0:25 OF EDT▲ Up
B32125KAUS KDEN UAL595 N66837 ▼ Dn
Q01924[LINK ACK]▲ Up
Q01924[LINK TEST]▼ Dn


AIRCRAFT HISTORY
FLIGHT DATE FLIGHT NO. ORIGIN DESTINATION CLEARED ROUTE BLOCK TIME FLIGHT TIME FUEL USED PILOT
2021-02-14UAL1874KDEN KJAC KDEN DDRTH DNW KJAC1.4 hrs1.1 hrs7,811 lbZsolt Szivak
2021-02-11UAL595KAUS KDEN KAUS WLMRT ELOEL KLNGR SPS LBL HALEN KOORN IDOLL NIIXX HAGGR BSTON BOSSS RW35L2.7 hrs2.4 hrs14,518 lbNiklas Graefe
2021-01-21UAL2377KDEN KAUS KDEN BRKEM LENNN TIKLR CIROS ICECI SHOJO SABTH VRONI PNH TURKI DUMPS ABI DILLO SZAGI LAIKS BOYZZ CRLOS HOUKM RW17L2.1 hrs1.7 hrs10,254 lbNiklas Graefe
2021-01-10UAL2240KPDX KDEN KPDX RIVRR COSUG HADIS WHAMY IMB BOI PIH OCS MJANE MSTSH HIPEE FOLSM BBOCO FLATI ELLDO TOTTT YESSS BAACK BABAA HIMOM CELBI RW35L2.6 hrs2.2 hrs12,478 lbNiklas Graefe
2020-12-19UAL479KSFO KPDX KSFO TYDYE TRUKN GRTFL SPNSR GSTER MOXEE PORTL TMBRS VANTZ FLOWR FFULL SSAIL MYCRO BBREW PUBBB HAIRN RW10R1.7 hrs1.5 hrs8,609 lbNiklas Graefe
2020-11-14UAL519KMSO KSFO KMSO IPPUG VICTO OCFOW LKT WNDEL MRRLO MSCAT BGGLO LOZIT BDEGA CORKK BRIXX BERKS RW19L2.5 hrs2.2 hrs15,641 lbChemtrails
2020-11-13UAL3929KDFW KMSO KDFW FUZ BATIK SPS LBL FQF MBW BOY HIA LOLLO RW124.6 hrs4.3 hrs20,711 lbPete L.
2020-10-26UAL3892KGPI KDFW KGPI HUCKL ANGIL GRCON CHOTE GTF BIL MBW LAR DVV LAA LBL MDANO BELFR LETNN ZUBOV VKTRY JOVEM MSSLE SILER KBOOM FUEWL ALLIN RW36L3.4 hrs3.1 hrs18,486 lbPete L.
2020-10-23UAL2215KDEN KGPI 2.1 hrs1.9 hrs12,205 lbPete L.
2020-10-23UAL2215KRNO KDEN KRNO SPLTM RYANN JSICA MLF LUDOH BUMMP SNOEE BOWLL ABASN KTOOO SSKII BGDEE CRAGG NARLE TELLR RW34R2.2 hrs1.8 hrs11,411 lbPete L.
2020-10-22UAL2141KDEN KRNO KDEN MUGBE RALFI RAPDS PCKNS ZIMMR CHNGY WAATS BVL FASTE MYBAD WHATZ WADOL MYYAA SALLI FMG HHOPE WAGGE RW34L2.4 hrs2.1 hrs13,175 lbPete L.
2020-10-14UAL3922KMSO KDEN 1.7 hrs1.3 hrs9,352 lbPete L.
2020-10-14UAL3922KPHX KMSO KPHX ZEPER KARLO CHILY HOBES ILC TWF LKT WEDAK RW302.4 hrs2.2 hrs13,848 lbPete L.
2020-09-03UAL5920CYLW KPHX CYLW LWNB LW ONSET DNJ TWF MLF TENTS PANTD DUTEY MAIER BRUSR ANNTI ZILUB BRIEZ KUCOO JURAZ JAGAL RW262.7 hrs2.5 hrs14,563 lbPete L.
2020-09-02UAL6382KIAH CYLW KIAH WLLIS LOA DOLEY FUZ LBL LAA FQF OCS DBS LKT MLP TWIGY CFRBZ FINBO YXC TAGBA OMPIM NORIP BEVOT VILMO AMBAT RW344.5 hrs4.2 hrs27,179 lbPete L.
2020-07-28UAL9955MSLP KIAH MSLP MEDIR BETAS TABSA KEHLI KELPP MULLT SKALE LINKK GILLL RDFSH RW273 hrs2.9 hrs13,952 lbNiklas Graefe